sensor_id;sensor_type;location;lat;lon;timestamp;temperature;humidity
25074;DHT22;13066;52.042;5.648;2022-08-07T00:00:44;17.80;78.00
25074;DHT22;13066;52.042;5.648;2022-08-07T00:03:12;17.70;78.00
25074;DHT22;13066;52.042;5.648;2022-08-07T00:05:40;17.80;78.20
25074;DHT22;13066;52.042;5.648;2022-08-07T00:08:12;17.70;78.10
25074;DHT22;13066;52.042;5.648;2022-08-07T00:10:41;17.70;78.10
25074;DHT22;13066;52.042;5.648;2022-08-07T00:13:23;17.70;78.10
25074;DHT22;13066;52.042;5.648;2022-08-07T00:15:53;17.70;78.10
25074;DHT22;13066;52.042;5.648;2022-08-07T00:18:24;17.70;78.30
25074;DHT22;13066;52.042;5.648;2022-08-07T00:20:54;17.60;78.40
25074;DHT22;13066;52.042;5.648;2022-08-07T00:23:28;17.60;78.50
25074;DHT22;13066;52.042;5.648;2022-08-07T00:25:58;17.60;78.70
25074;DHT22;13066;52.042;5.648;2022-08-07T00:28:47;17.60;78.70
25074;DHT22;13066;52.042;5.648;2022-08-07T00:31:22;17.60;78.90
25074;DHT22;13066;52.042;5.648;2022-08-07T00:34:04;17.60;79.10
25074;DHT22;13066;52.042;5.648;2022-08-07T00:36:35;17.50;79.10
25074;DHT22;13066;52.042;5.648;2022-08-07T00:39:08;17.50;79.00
25074;DHT22;13066;52.042;5.648;2022-08-07T00:41:49;17.50;79.10
25074;DHT22;13066;52.042;5.648;2022-08-07T00:44:19;17.50;79.10
25074;DHT22;13066;52.042;5.648;2022-08-07T00:46:52;17.40;79.20
25074;DHT22;13066;52.042;5.648;2022-08-07T00:49:21;17.50;79.30
25074;DHT22;13066;52.042;5.648;2022-08-07T00:52:10;17.40;79.30
25074;DHT22;13066;52.042;5.648;2022-08-07T00:54:38;17.40;79.50
25074;DHT22;13066;52.042;5.648;2022-08-07T00:57:08;17.40;80.40
25074;DHT22;13066;52.042;5.648;2022-08-07T00:59:38;17.30;79.70
25074;DHT22;13066;52.042;5.648;2022-08-07T01:02:07;17.30;79.80
25074;DHT22;13066;52.042;5.648;2022-08-07T01:04:54;17.30;79.90
25074;DHT22;13066;52.042;5.648;2022-08-07T01:07:26;17.30;80.10
25074;DHT22;13066;52.042;5.648;2022-08-07T01:09:56;17.30;80.40
25074;DHT22;13066;52.042;5.648;2022-08-07T01:12:35;17.30;80.40
25074;DHT22;13066;52.042;5.648;2022-08-07T01:15:05;17.20;80.40
25074;DHT22;13066;52.042;5.648;2022-08-07T01:17:42;17.20;80.50
25074;DHT22;13066;52.042;5.648;2022-08-07T01:20:12;17.20;80.70
25074;DHT22;13066;52.042;5.648;2022-08-07T01:22:44;17.20;80.70
25074;DHT22;13066;52.042;5.648;2022-08-07T01:25:33;17.20;80.70
25074;DHT22;13066;52.042;5.648;2022-08-07T01:28:22;17.10;80.80
25074;DHT22;13066;52.042;5.648;2022-08-07T01:30:51;17.10;80.90
25074;DHT22;13066;52.042;5.648;2022-08-07T01:33:22;17.10;81.00
25074;DHT22;13066;52.042;5.648;2022-08-07T01:36:10;17.10;81.10
25074;DHT22;13066;52.042;5.648;2022-08-07T01:38:44;17.00;81.20
25074;DHT22;13066;52.042;5.648;2022-08-07T01:41:16;17.00;81.40
25074;DHT22;13066;52.042;5.648;2022-08-07T01:43:52;17.00;81.50
25074;DHT22;13066;52.042;5.648;2022-08-07T01:46:20;17.00;81.70
25074;DHT22;13066;52.042;5.648;2022-08-07T01:48:49;17.00;81.90
25074;DHT22;13066;52.042;5.648;2022-08-07T01:51:19;17.00;81.90
25074;DHT22;13066;52.042;5.648;2022-08-07T01:54:10;16.90;81.80
25074;DHT22;13066;52.042;5.648;2022-08-07T01:57:04;16.90;82.60
25074;DHT22;13066;52.042;5.648;2022-08-07T01:59:41;16.90;81.90
25074;DHT22;13066;52.042;5.648;2022-08-07T02:02:14;16.90;82.10
25074;DHT22;13066;52.042;5.648;2022-08-07T02:05:06;16.80;83.00
25074;DHT22;13066;52.042;5.648;2022-08-07T02:07:57;16.80;82.60
25074;DHT22;13066;52.042;5.648;2022-08-07T02:10:28;16.80;82.80
25074;DHT22;13066;52.042;5.648;2022-08-07T02:12:59;16.70;82.70
25074;DHT22;13066;52.042;5.648;2022-08-07T02:15:29;16.70;82.60
25074;DHT22;13066;52.042;5.648;2022-08-07T02:18:00;16.70;82.70
25074;DHT22;13066;52.042;5.648;2022-08-07T02:20:31;16.70;82.80
25074;DHT22;13066;52.042;5.648;2022-08-07T02:23:02;16.70;82.90
25074;DHT22;13066;52.042;5.648;2022-08-07T02:25:36;16.70;83.00
25074;DHT22;13066;52.042;5.648;2022-08-07T02:28:27;16.70;83.10
25074;DHT22;13066;52.042;5.648;2022-08-07T02:30:56;16.60;83.00
25074;DHT22;13066;52.042;5.648;2022-08-07T02:33:45;16.60;83.20
25074;DHT22;13066;52.042;5.648;2022-08-07T02:36:30;16.60;83.30
25074;DHT22;13066;52.042;5.648;2022-08-07T02:39:02;16.50;83.60
25074;DHT22;13066;52.042;5.648;2022-08-07T02:41:45;16.50;83.80
25074;DHT22;13066;52.042;5.648;2022-08-07T02:44:22;16.50;84.00
25074;DHT22;13066;52.042;5.648;2022-08-07T02:47:01;16.50;84.00
25074;DHT22;13066;52.042;5.648;2022-08-07T02:49:30;16.50;84.10
25074;DHT22;13066;52.042;5.648;2022-08-07T02:52:22;16.40;84.10
25074;DHT22;13066;52.042;5.648;2022-08-07T02:55:00;16.40;84.30
25074;DHT22;13066;52.042;5.648;2022-08-07T02:57:31;16.40;84.50
25074;DHT22;13066;52.042;5.648;2022-08-07T03:00:02;16.40;84.50
25074;DHT22;13066;52.042;5.648;2022-08-07T03:02:40;16.30;84.60
25074;DHT22;13066;52.042;5.648;2022-08-07T03:05:20;16.30;84.80
25074;DHT22;13066;52.042;5.648;2022-08-07T03:07:50;16.30;84.70
25074;DHT22;13066;52.042;5.648;2022-08-07T03:10:36;16.30;84.90
25074;DHT22;13066;52.042;5.648;2022-08-07T03:13:14;16.20;85.00
25074;DHT22;13066;52.042;5.648;2022-08-07T03:15:45;16.20;85.20
25074;DHT22;13066;52.042;5.648;2022-08-07T03:18:25;16.20;85.30
25074;DHT22;13066;52.042;5.648;2022-08-07T03:21:03;16.20;85.50
25074;DHT22;13066;52.042;5.648;2022-08-07T03:23:37;16.10;85.40
25074;DHT22;13066;52.042;5.648;2022-08-07T03:26:29;16.20;86.10
25074;DHT22;13066;52.042;5.648;2022-08-07T03:29:02;16.10;85.30
25074;DHT22;13066;52.042;5.648;2022-08-07T03:31:37;16.10;85.40
25074;DHT22;13066;52.042;5.648;2022-08-07T03:34:11;16.10;85.50
25074;DHT22;13066;52.042;5.648;2022-08-07T03:36:48;16.10;85.60
25074;DHT22;13066;52.042;5.648;2022-08-07T03:39:19;16.10;85.80
25074;DHT22;13066;52.042;5.648;2022-08-07T03:42:08;16.10;85.90
25074;DHT22;13066;52.042;5.648;2022-08-07T03:44:39;16.10;86.00
25074;DHT22;13066;52.042;5.648;2022-08-07T03:47:13;16.00;86.00
25074;DHT22;13066;52.042;5.648;2022-08-07T03:49:44;16.00;86.10
25074;DHT22;13066;52.042;5.648;2022-08-07T03:52:19;16.00;86.30
25074;DHT22;13066;52.042;5.648;2022-08-07T03:54:53;15.90;86.30
25074;DHT22;13066;52.042;5.648;2022-08-07T03:57:25;15.90;86.40
25074;DHT22;13066;52.042;5.648;2022-08-07T04:00:16;15.90;86.40
25074;DHT22;13066;52.042;5.648;2022-08-07T04:02:54;15.90;86.50
25074;DHT22;13066;52.042;5.648;2022-08-07T04:05:23;15.80;86.60
25074;DHT22;13066;52.042;5.648;2022-08-07T04:08:09;15.80;86.60
25074;DHT22;13066;52.042;5.648;2022-08-07T04:10:38;15.80;86.90
25074;DHT22;13066;52.042;5.648;2022-08-07T04:13:10;15.80;87.00
25074;DHT22;13066;52.042;5.648;2022-08-07T04:15:43;15.70;87.10
25074;DHT22;13066;52.042;5.648;2022-08-07T04:18:15;15.70;87.10
25074;DHT22;13066;52.042;5.648;2022-08-07T04:21:03;15.70;87.10
25074;DHT22;13066;52.042;5.648;2022-08-07T04:23:33;15.70;87.20
25074;DHT22;13066;52.042;5.648;2022-08-07T04:26:22;15.70;87.30
25074;DHT22;13066;52.042;5.648;2022-08-07T04:28:54;15.60;87.20
25074;DHT22;13066;52.042;5.648;2022-08-07T04:31:26;15.60;88.20
25074;DHT22;13066;52.042;5.648;2022-08-07T04:34:15;15.60;87.60
25074;DHT22;13066;52.042;5.648;2022-08-07T04:36:59;15.60;87.70
25074;DHT22;13066;52.042;5.648;2022-08-07T04:39:27;15.50;87.70
25074;DHT22;13066;52.042;5.648;2022-08-07T04:42:02;15.50;87.90
25074;DHT22;13066;52.042;5.648;2022-08-07T04:44:31;15.50;88.00
25074;DHT22;13066;52.042;5.648;2022-08-07T04:47:06;15.50;88.00
25074;DHT22;13066;52.042;5.648;2022-08-07T04:50:03;15.50;88.00
25074;DHT22;13066;52.042;5.648;2022-08-07T04:52:40;15.50;88.10
25074;DHT22;13066;52.042;5.648;2022-08-07T04:55:21;15.50;88.30
25074;DHT22;13066;52.042;5.648;2022-08-07T04:58:18;15.50;88.50
25074;DHT22;13066;52.042;5.648;2022-08-07T05:01:13;15.50;88.70
25074;DHT22;13066;52.042;5.648;2022-08-07T05:03:48;15.50;88.90
25074;DHT22;13066;52.042;5.648;2022-08-07T05:06:37;15.50;88.90
25074;DHT22;13066;52.042;5.648;2022-08-07T05:09:23;15.50;89.00
25074;DHT22;13066;52.042;5.648;2022-08-07T05:12:15;15.50;89.10
25074;DHT22;13066;52.042;5.648;2022-08-07T05:14:59;15.50;89.10
25074;DHT22;13066;52.042;5.648;2022-08-07T05:17:54;15.60;89.10
25074;DHT22;13066;52.042;5.648;2022-08-07T05:20:29;15.60;89.30
25074;DHT22;13066;52.042;5.648;2022-08-07T05:23:00;15.60;89.50
25074;DHT22;13066;52.042;5.648;2022-08-07T05:25:30;15.50;89.70
25074;DHT22;13066;52.042;5.648;2022-08-07T05:28:19;15.60;89.70
25074;DHT22;13066;52.042;5.648;2022-08-07T05:30:53;15.60;89.80
25074;DHT22;13066;52.042;5.648;2022-08-07T05:33:22;15.50;89.80
25074;DHT22;13066;52.042;5.648;2022-08-07T05:35:54;15.60;89.90
25074;DHT22;13066;52.042;5.648;2022-08-07T05:38:23;15.60;90.00
25074;DHT22;13066;52.042;5.648;2022-08-07T05:41:11;15.60;90.00
25074;DHT22;13066;52.042;5.648;2022-08-07T05:43:47;15.70;90.10
25074;DHT22;13066;52.042;5.648;2022-08-07T05:46:36;15.70;90.10
25074;DHT22;13066;52.042;5.648;2022-08-07T05:49:07;15.70;90.10
25074;DHT22;13066;52.042;5.648;2022-08-07T05:51:40;15.70;90.10
25074;DHT22;13066;52.042;5.648;2022-08-07T05:54:13;15.80;90.20
25074;DHT22;13066;52.042;5.648;2022-08-07T05:57:04;15.80;90.20
25074;DHT22;13066;52.042;5.648;2022-08-07T05:59:36;15.80;90.30
25074;DHT22;13066;52.042;5.648;2022-08-07T06:02:26;15.90;90.40
25074;DHT22;13066;52.042;5.648;2022-08-07T06:04:58;15.90;90.50
25074;DHT22;13066;52.042;5.648;2022-08-07T06:07:31;16.00;90.50
25074;DHT22;13066;52.042;5.648;2022-08-07T06:10:20;16.10;90.70
25074;DHT22;13066;52.042;5.648;2022-08-07T06:12:48;16.10;90.80
25074;DHT22;13066;52.042;5.648;2022-08-07T06:15:17;16.10;90.90
25074;DHT22;13066;52.042;5.648;2022-08-07T06:17:47;16.20;91.00
25074;DHT22;13066;52.042;5.648;2022-08-07T06:20:21;16.20;91.10
25074;DHT22;13066;52.042;5.648;2022-08-07T06:23:07;16.30;91.20
25074;DHT22;13066;52.042;5.648;2022-08-07T06:25:56;16.30;91.30
25074;DHT22;13066;52.042;5.648;2022-08-07T06:28:24;16.40;91.40
25074;DHT22;13066;52.042;5.648;2022-08-07T06:30:56;16.40;91.50
25074;DHT22;13066;52.042;5.648;2022-08-07T06:33:24;16.50;91.60
25074;DHT22;13066;52.042;5.648;2022-08-07T06:35:55;16.60;91.50
25074;DHT22;13066;52.042;5.648;2022-08-07T06:38:42;16.60;91.30
25074;DHT22;13066;52.042;5.648;2022-08-07T06:41:36;16.70;91.20
25074;DHT22;13066;52.042;5.648;2022-08-07T06:44:26;16.70;91.10
25074;DHT22;13066;52.042;5.648;2022-08-07T06:46:59;16.80;91.20
25074;DHT22;13066;52.042;5.648;2022-08-07T06:49:42;16.80;91.10
25074;DHT22;13066;52.042;5.648;2022-08-07T06:52:24;16.90;91.00
25074;DHT22;13066;52.042;5.648;2022-08-07T06:55:05;17.00;90.90
25074;DHT22;13066;52.042;5.648;2022-08-07T06:57:58;17.10;90.90
25074;DHT22;13066;52.042;5.648;2022-08-07T07:00:27;17.10;90.80
25074;DHT22;13066;52.042;5.648;2022-08-07T07:02:58;17.20;90.70
25074;DHT22;13066;52.042;5.648;2022-08-07T07:05:37;17.30;90.50
25074;DHT22;13066;52.042;5.648;2022-08-07T07:08:26;17.30;90.30
25074;DHT22;13066;52.042;5.648;2022-08-07T07:10:56;17.40;90.20
25074;DHT22;13066;52.042;5.648;2022-08-07T07:13:30;17.50;90.20
25074;DHT22;13066;52.042;5.648;2022-08-07T07:16:22;17.50;90.10
25074;DHT22;13066;52.042;5.648;2022-08-07T07:19:00;17.60;89.80
25074;DHT22;13066;52.042;5.648;2022-08-07T07:21:50;17.70;89.30
25074;DHT22;13066;52.042;5.648;2022-08-07T07:24:41;17.70;88.40
25074;DHT22;13066;52.042;5.648;2022-08-07T07:27:32;17.80;87.80
25074;DHT22;13066;52.042;5.648;2022-08-07T07:30:24;17.90;87.50
25074;DHT22;13066;52.042;5.648;2022-08-07T07:33:05;18.00;87.00
25074;DHT22;13066;52.042;5.648;2022-08-07T07:35:40;18.00;86.10
25074;DHT22;13066;52.042;5.648;2022-08-07T07:38:29;18.10;85.80
25074;DHT22;13066;52.042;5.648;2022-08-07T07:41:04;18.20;85.00
25074;DHT22;13066;52.042;5.648;2022-08-07T07:43:39;18.30;84.40
25074;DHT22;13066;52.042;5.648;2022-08-07T07:46:30;18.40;83.90
25074;DHT22;13066;52.042;5.648;2022-08-07T07:49:19;18.50;82.90
25074;DHT22;13066;52.042;5.648;2022-08-07T07:52:08;18.50;82.50
25074;DHT22;13066;52.042;5.648;2022-08-07T07:54:39;18.60;81.90
25074;DHT22;13066;52.042;5.648;2022-08-07T07:57:18;18.60;81.90
25074;DHT22;13066;52.042;5.648;2022-08-07T08:00:10;18.70;81.70
25074;DHT22;13066;52.042;5.648;2022-08-07T08:03:00;18.80;80.80
25074;DHT22;13066;52.042;5.648;2022-08-07T08:05:35;18.80;80.30
25074;DHT22;13066;52.042;5.648;2022-08-07T08:08:23;18.80;80.20
25074;DHT22;13066;52.042;5.648;2022-08-07T08:11:02;18.90;80.60
25074;DHT22;13066;52.042;5.648;2022-08-07T08:13:35;19.00;80.50
25074;DHT22;13066;52.042;5.648;2022-08-07T08:16:25;19.00;81.30
25074;DHT22;13066;52.042;5.648;2022-08-07T08:18:57;19.10;80.20
25074;DHT22;13066;52.042;5.648;2022-08-07T08:21:47;19.10;80.00
25074;DHT22;13066;52.042;5.648;2022-08-07T08:24:37;19.20;79.60
25074;DHT22;13066;52.042;5.648;2022-08-07T08:27:43;19.20;79.30
25074;DHT22;13066;52.042;5.648;2022-08-07T08:30:30;19.30;79.30
25074;DHT22;13066;52.042;5.648;2022-08-07T08:33:11;19.30;78.90
25074;DHT22;13066;52.042;5.648;2022-08-07T08:35:44;19.40;78.50
25074;DHT22;13066;52.042;5.648;2022-08-07T08:38:18;19.40;78.00
25074;DHT22;13066;52.042;5.648;2022-08-07T08:40:58;19.50;77.70
25074;DHT22;13066;52.042;5.648;2022-08-07T08:43:34;19.50;77.20
25074;DHT22;13066;52.042;5.648;2022-08-07T08:46:27;19.60;76.70
25074;DHT22;13066;52.042;5.648;2022-08-07T08:49:06;19.60;76.20
25074;DHT22;13066;52.042;5.648;2022-08-07T08:51:42;19.60;75.80
25074;DHT22;13066;52.042;5.648;2022-08-07T08:54:34;19.70;75.60
25074;DHT22;13066;52.042;5.648;2022-08-07T08:57:11;19.70;75.60
25074;DHT22;13066;52.042;5.648;2022-08-07T08:59:46;19.70;75.90
25074;DHT22;13066;52.042;5.648;2022-08-07T09:02:21;19.80;75.50
25074;DHT22;13066;52.042;5.648;2022-08-07T09:05:03;19.80;74.60
25074;DHT22;13066;52.042;5.648;2022-08-07T09:07:43;19.90;74.40
25074;DHT22;13066;52.042;5.648;2022-08-07T09:10:27;19.90;74.60
25074;DHT22;13066;52.042;5.648;2022-08-07T09:13:05;19.90;74.00
25074;DHT22;13066;52.042;5.648;2022-08-07T09:15:57;20.00;73.80
25074;DHT22;13066;52.042;5.648;2022-08-07T09:19:01;20.00;73.50
25074;DHT22;13066;52.042;5.648;2022-08-07T09:22:14;20.10;72.60
25074;DHT22;13066;52.042;5.648;2022-08-07T09:25:09;20.10;72.10
25074;DHT22;13066;52.042;5.648;2022-08-07T09:27:51;20.20;71.80
25074;DHT22;13066;52.042;5.648;2022-08-07T09:30:36;20.20;72.40
25074;DHT22;13066;52.042;5.648;2022-08-07T09:33:19;20.20;71.20
25074;DHT22;13066;52.042;5.648;2022-08-07T09:36:16;20.30;71.00
25074;DHT22;13066;52.042;5.648;2022-08-07T09:38:53;20.40;70.10
25074;DHT22;13066;52.042;5.648;2022-08-07T09:41:32;20.40;69.40
25074;DHT22;13066;52.042;5.648;2022-08-07T09:44:17;20.40;68.70
25074;DHT22;13066;52.042;5.648;2022-08-07T09:47:13;20.50;68.70
25074;DHT22;13066;52.042;5.648;2022-08-07T09:50:07;20.50;68.70
25074;DHT22;13066;52.042;5.648;2022-08-07T09:52:47;20.50;68.80
25074;DHT22;13066;52.042;5.648;2022-08-07T09:55:25;20.60;69.10
25074;DHT22;13066;52.042;5.648;2022-08-07T09:58:34;20.60;69.20
25074;DHT22;13066;52.042;5.648;2022-08-07T10:01:24;20.70;69.00
25074;DHT22;13066;52.042;5.648;2022-08-07T10:04:36;20.70;68.70
25074;DHT22;13066;52.042;5.648;2022-08-07T10:07:25;20.80;68.80
25074;DHT22;13066;52.042;5.648;2022-08-07T10:10:39;20.90;67.80
25074;DHT22;13066;52.042;5.648;2022-08-07T10:13:46;21.00;66.50
25074;DHT22;13066;52.042;5.648;2022-08-07T10:19:42;21.10;65.70
25074;DHT22;13066;52.042;5.648;2022-08-07T10:22:33;21.10;64.90
25074;DHT22;13066;52.042;5.648;2022-08-07T10:25:18;21.20;63.20
25074;DHT22;13066;52.042;5.648;2022-08-07T10:30:58;21.30;62.90
25074;DHT22;13066;52.042;5.648;2022-08-07T10:33:46;21.30;62.90
25074;DHT22;13066;52.042;5.648;2022-08-07T10:36:45;21.30;63.50
25074;DHT22;13066;52.042;5.648;2022-08-07T10:39:27;21.40;63.80
25074;DHT22;13066;52.042;5.648;2022-08-07T10:42:24;21.50;63.50
25074;DHT22;13066;52.042;5.648;2022-08-07T10:45:14;21.50;62.90
25074;DHT22;13066;52.042;5.648;2022-08-07T10:48:13;21.50;62.80
25074;DHT22;13066;52.042;5.648;2022-08-07T10:50:48;21.60;62.40
25074;DHT22;13066;52.042;5.648;2022-08-07T10:53:24;21.60;61.90
25074;DHT22;13066;52.042;5.648;2022-08-07T10:56:26;21.60;61.30
25074;DHT22;13066;52.042;5.648;2022-08-07T10:59:11;21.60;61.00
25074;DHT22;13066;52.042;5.648;2022-08-07T11:01:52;21.70;60.30
25074;DHT22;13066;52.042;5.648;2022-08-07T11:04:51;21.70;60.20
25074;DHT22;13066;52.042;5.648;2022-08-07T11:07:35;21.80;60.80
25074;DHT22;13066;52.042;5.648;2022-08-07T11:10:41;21.80;60.80
25074;DHT22;13066;52.042;5.648;2022-08-07T11:13:23;21.90;60.70
25074;DHT22;13066;52.042;5.648;2022-08-07T11:16:18;21.90;60.30
25074;DHT22;13066;52.042;5.648;2022-08-07T11:19:01;21.90;60.50
25074;DHT22;13066;52.042;5.648;2022-08-07T11:21:37;22.00;59.90
25074;DHT22;13066;52.042;5.648;2022-08-07T11:24:13;22.00;59.20
25074;DHT22;13066;52.042;5.648;2022-08-07T11:26:50;22.10;59.40
25074;DHT22;13066;52.042;5.648;2022-08-07T11:29:28;22.20;59.70
25074;DHT22;13066;52.042;5.648;2022-08-07T11:32:13;22.20;59.40
25074;DHT22;13066;52.042;5.648;2022-08-07T11:34:56;22.30;59.10
25074;DHT22;13066;52.042;5.648;2022-08-07T11:37:40;22.40;58.50
25074;DHT22;13066;52.042;5.648;2022-08-07T11:40:45;22.40;57.80
25074;DHT22;13066;52.042;5.648;2022-08-07T11:43:19;22.40;57.80
25074;DHT22;13066;52.042;5.648;2022-08-07T11:46:29;22.50;57.80
25074;DHT22;13066;52.042;5.648;2022-08-07T11:49:28;22.50;57.60
25074;DHT22;13066;52.042;5.648;2022-08-07T11:52:48;22.60;56.90
25074;DHT22;13066;52.042;5.648;2022-08-07T11:55:28;22.60;56.90
25074;DHT22;13066;52.042;5.648;2022-08-07T11:58:29;22.60;57.00
25074;DHT22;13066;52.042;5.648;2022-08-07T12:01:14;22.70;56.60
25074;DHT22;13066;52.042;5.648;2022-08-07T12:04:08;22.70;56.30
25074;DHT22;13066;52.042;5.648;2022-08-07T12:06:45;22.70;55.50
25074;DHT22;13066;52.042;5.648;2022-08-07T12:09:34;22.70;54.70
25074;DHT22;13066;52.042;5.648;2022-08-07T12:12:06;22.80;54.10
25074;DHT22;13066;52.042;5.648;2022-08-07T12:14:47;22.80;53.80
25074;DHT22;13066;52.042;5.648;2022-08-07T12:17:25;22.80;52.90
25074;DHT22;13066;52.042;5.648;2022-08-07T12:20:07;22.80;52.70
25074;DHT22;13066;52.042;5.648;2022-08-07T12:23:14;22.80;52.30
25074;DHT22;13066;52.042;5.648;2022-08-07T12:26:10;22.90;52.00
25074;DHT22;13066;52.042;5.648;2022-08-07T12:29:02;22.90;50.80
25074;DHT22;13066;52.042;5.648;2022-08-07T12:31:36;23.00;50.90
25074;DHT22;13066;52.042;5.648;2022-08-07T12:34:29;23.00;50.60
25074;DHT22;13066;52.042;5.648;2022-08-07T12:37:00;23.10;51.90
25074;DHT22;13066;52.042;5.648;2022-08-07T12:39:44;23.10;51.20
25074;DHT22;13066;52.042;5.648;2022-08-07T12:42:20;23.20;51.50
25074;DHT22;13066;52.042;5.648;2022-08-07T12:44:56;23.20;51.40
25074;DHT22;13066;52.042;5.648;2022-08-07T12:47:45;23.30;51.80
25074;DHT22;13066;52.042;5.648;2022-08-07T12:50:19;23.30;51.70
25074;DHT22;13066;52.042;5.648;2022-08-07T12:53:11;23.40;51.20
25074;DHT22;13066;52.042;5.648;2022-08-07T12:55:49;23.40;51.30
25074;DHT22;13066;52.042;5.648;2022-08-07T12:58:35;23.50;50.70
25074;DHT22;13066;52.042;5.648;2022-08-07T13:01:11;23.50;50.20
25074;DHT22;13066;52.042;5.648;2022-08-07T13:03:53;23.60;49.70
25074;DHT22;13066;52.042;5.648;2022-08-07T13:06:50;23.60;49.20
25074;DHT22;13066;52.042;5.648;2022-08-07T13:09:41;23.70;49.20
25074;DHT22;13066;52.042;5.648;2022-08-07T13:12:43;23.70;49.80
25074;DHT22;13066;52.042;5.648;2022-08-07T13:15:25;23.80;50.20
25074;DHT22;13066;52.042;5.648;2022-08-07T13:18:08;23.80;50.40
25074;DHT22;13066;52.042;5.648;2022-08-07T13:20:59;24.00;50.50
25074;DHT22;13066;52.042;5.648;2022-08-07T13:23:36;24.00;50.20
25074;DHT22;13066;52.042;5.648;2022-08-07T13:26:33;24.10;50.30
25074;DHT22;13066;52.042;5.648;2022-08-07T13:29:11;24.10;50.00
25074;DHT22;13066;52.042;5.648;2022-08-07T13:31:48;24.20;50.30
25074;DHT22;13066;52.042;5.648;2022-08-07T13:34:32;24.20;50.10
25074;DHT22;13066;52.042;5.648;2022-08-07T13:37:09;24.30;49.20
25074;DHT22;13066;52.042;5.648;2022-08-07T13:40:08;24.30;48.00
25074;DHT22;13066;52.042;5.648;2022-08-07T13:43:01;24.40;47.80
25074;DHT22;13066;52.042;5.648;2022-08-07T13:45:41;24.40;48.20
25074;DHT22;13066;52.042;5.648;2022-08-07T13:48:33;24.50;47.90
25074;DHT22;13066;52.042;5.648;2022-08-07T13:51:05;24.50;47.10
25074;DHT22;13066;52.042;5.648;2022-08-07T13:53:57;24.50;46.50
25074;DHT22;13066;52.042;5.648;2022-08-07T13:56:32;24.60;46.80
25074;DHT22;13066;52.042;5.648;2022-08-07T13:59:20;24.60;46.50
25074;DHT22;13066;52.042;5.648;2022-08-07T14:01:50;24.60;46.40
25074;DHT22;13066;52.042;5.648;2022-08-07T14:04:35;24.70;46.50
25074;DHT22;13066;52.042;5.648;2022-08-07T14:07:17;24.80;47.40
25074;DHT22;13066;52.042;5.648;2022-08-07T14:09:52;24.80;47.80
25074;DHT22;13066;52.042;5.648;2022-08-07T14:12:44;24.90;48.50
25074;DHT22;13066;52.042;5.648;2022-08-07T14:15:27;25.00;49.40
25074;DHT22;13066;52.042;5.648;2022-08-07T14:18:03;25.10;49.20
25074;DHT22;13066;52.042;5.648;2022-08-07T14:20:58;25.10;48.40
25074;DHT22;13066;52.042;5.648;2022-08-07T14:23:50;25.10;48.20
25074;DHT22;13066;52.042;5.648;2022-08-07T14:26:33;25.20;48.10
25074;DHT22;13066;52.042;5.648;2022-08-07T14:29:04;25.20;48.20
25074;DHT22;13066;52.042;5.648;2022-08-07T14:31:59;25.30;48.70
25074;DHT22;13066;52.042;5.648;2022-08-07T14:34:31;25.40;48.90
25074;DHT22;13066;52.042;5.648;2022-08-07T14:37:15;25.50;49.10
25074;DHT22;13066;52.042;5.648;2022-08-07T14:39:45;25.50;48.80
25074;DHT22;13066;52.042;5.648;2022-08-07T14:42:35;25.60;49.00
25074;DHT22;13066;52.042;5.648;2022-08-07T14:45:26;25.70;48.60
25074;DHT22;13066;52.042;5.648;2022-08-07T14:48:16;25.70;49.00
25074;DHT22;13066;52.042;5.648;2022-08-07T14:50:49;25.90;49.00
25074;DHT22;13066;52.042;5.648;2022-08-07T14:53:22;26.00;48.10
25074;DHT22;13066;52.042;5.648;2022-08-07T14:56:11;26.10;48.10
25074;DHT22;13066;52.042;5.648;2022-08-07T14:58:59;26.20;47.40
25074;DHT22;13066;52.042;5.648;2022-08-07T15:01:31;26.30;46.40
25074;DHT22;13066;52.042;5.648;2022-08-07T15:04:09;26.30;45.60
25074;DHT22;13066;52.042;5.648;2022-08-07T15:06:39;26.30;45.40
25074;DHT22;13066;52.042;5.648;2022-08-07T15:09:16;26.20;44.90
25074;DHT22;13066;52.042;5.648;2022-08-07T15:12:08;26.20;45.00
25074;DHT22;13066;52.042;5.648;2022-08-07T15:15:02;26.30;45.40
25074;DHT22;13066;52.042;5.648;2022-08-07T15:17:55;26.30;44.80
25074;DHT22;13066;52.042;5.648;2022-08-07T15:20:31;26.40;44.50
25074;DHT22;13066;52.042;5.648;2022-08-07T15:23:26;26.60;44.30
25074;DHT22;13066;52.042;5.648;2022-08-07T15:26:20;26.70;43.00
25074;DHT22;13066;52.042;5.648;2022-08-07T15:28:55;26.70;42.80
25074;DHT22;13066;52.042;5.648;2022-08-07T15:31:47;26.90;43.00
25074;DHT22;13066;52.042;5.648;2022-08-07T15:34:28;27.00;42.30
25074;DHT22;13066;52.042;5.648;2022-08-07T15:37:00;27.00;42.30
25074;DHT22;13066;52.042;5.648;2022-08-07T15:39:36;27.10;42.30
25074;DHT22;13066;52.042;5.648;2022-08-07T15:42:55;27.00;42.30
25074;DHT22;13066;52.042;5.648;2022-08-07T15:45:31;26.90;42.00
25074;DHT22;13066;52.042;5.648;2022-08-07T15:48:24;26.90;42.40
25074;DHT22;13066;52.042;5.648;2022-08-07T15:51:14;26.90;42.40
25074;DHT22;13066;52.042;5.648;2022-08-07T15:53:48;26.80;42.20
25074;DHT22;13066;52.042;5.648;2022-08-07T15:56:23;26.70;42.20
25074;DHT22;13066;52.042;5.648;2022-08-07T15:59:03;26.70;42.50
25074;DHT22;13066;52.042;5.648;2022-08-07T16:01:33;26.50;42.90
25074;DHT22;13066;52.042;5.648;2022-08-07T16:04:08;26.40;42.80
25074;DHT22;13066;52.042;5.648;2022-08-07T16:06:43;26.30;42.90
25074;DHT22;13066;52.042;5.648;2022-08-07T16:09:20;26.20;43.10
25074;DHT22;13066;52.042;5.648;2022-08-07T16:12:24;26.10;43.40
25074;DHT22;13066;52.042;5.648;2022-08-07T16:15:24;25.80;43.70
25074;DHT22;13066;52.042;5.648;2022-08-07T16:18:33;25.70;44.20
25074;DHT22;13066;52.042;5.648;2022-08-07T16:21:22;25.60;44.50
25074;DHT22;13066;52.042;5.648;2022-08-07T16:24:22;25.50;44.90
25074;DHT22;13066;52.042;5.648;2022-08-07T16:27:07;25.50;45.10
25074;DHT22;13066;52.042;5.648;2022-08-07T16:30:04;25.40;45.50
25074;DHT22;13066;52.042;5.648;2022-08-07T16:32:59;25.30;45.50
25074;DHT22;13066;52.042;5.648;2022-08-07T16:36:15;25.30;45.90
25074;DHT22;13066;52.042;5.648;2022-08-07T16:38:58;25.30;46.00
25074;DHT22;13066;52.042;5.648;2022-08-07T16:41:49;25.20;46.20
25074;DHT22;13066;52.042;5.648;2022-08-07T16:48:00;25.30;46.10
25074;DHT22;13066;52.042;5.648;2022-08-07T16:50:48;25.30;46.30
25074;DHT22;13066;52.042;5.648;2022-08-07T16:54:15;25.20;46.30
25074;DHT22;13066;52.042;5.648;2022-08-07T16:57:28;25.20;46.30
25074;DHT22;13066;52.042;5.648;2022-08-07T17:00:18;25.10;46.20
25074;DHT22;13066;52.042;5.648;2022-08-07T17:03:16;25.00;46.70
25074;DHT22;13066;52.042;5.648;2022-08-07T17:06:12;25.00;47.10
25074;DHT22;13066;52.042;5.648;2022-08-07T17:09:07;25.00;47.70
25074;DHT22;13066;52.042;5.648;2022-08-07T17:12:06;25.00;47.80
25074;DHT22;13066;52.042;5.648;2022-08-07T17:15:01;24.90;48.00